Caloundra, Australia
Current Conditions -  °F | °C
As of 12:00 AM on Wednesday 22 Oct 2014 (Local Time) from YBBN Reporting Station
Rain Showers Rain Showers  
Wind Chill: 18°   Ceiling: 4500
Heat Index: 18°   Visibility: 6mi
Dew Point: 13°   Wind: 12mph
Humidity: 73%   Direction: 170°S
Pressure: 30.3"   Gusts: NA
Location:  26.8°S, 153.13°E
Report Text: YBBN 211400Z 17010KT 9999 VCSH FEW035 BKN045 18/13 Q1026 NOSIG
Loading
Personal Weather Stations






























Interactive Weather Map
Tropical Storm Tracking
New forecast layout! Learn more

10-Day Weather Forecast

Advertisements
Track Severe Weather on mobile